sensor_id;sensor_type;location;lat;lon;timestamp;pressure;altitude;pressure_sealevel;temperature;humidity
77165;BME280;66140;50.280;18.660;2023-02-12T05:00:49;100687.94;;;2.82;100.00
77165;BME280;66140;50.280;18.660;2023-02-12T05:03:14;100690.63;;;2.73;100.00
77165;BME280;66140;50.280;18.660;2023-02-12T05:05:40;100695.03;;;2.68;100.00
77165;BME280;66140;50.280;18.660;2023-02-12T05:08:05;100700.16;;;2.83;100.00
77165;BME280;66140;50.280;18.660;2023-02-12T05:10:31;100707.09;;;2.92;100.00
77165;BME280;66140;50.280;18.660;2023-02-12T05:12:57;100718.41;;;2.97;100.00
77165;BME280;66140;50.280;18.660;2023-02-12T05:15:25;100718.41;;;2.99;100.00
77165;BME280;66140;50.280;18.660;2023-02-12T05:17:50;100735.03;;;2.98;100.00
77165;BME280;66140;50.280;18.660;2023-02-12T05:20:35;100721.94;;;2.93;100.00
77165;BME280;66140;50.280;18.660;2023-02-12T05:25:52;100722.00;;;2.84;100.00
77165;BME280;66140;50.280;18.660;2023-02-12T05:28:22;100727.28;;;2.78;100.00
77165;BME280;66140;50.280;18.660;2023-02-12T05:30:50;100740.34;;;2.84;100.00
77165;BME280;66140;50.280;18.660;2023-02-12T05:33:16;100740.38;;;2.76;100.00
77165;BME280;66140;50.280;18.660;2023-02-12T05:35:42;100736.06;;;2.74;100.00
77165;BME280;66140;50.280;18.660;2023-02-12T05:38:07;100730.81;;;2.71;100.00
77165;BME280;66140;50.280;18.660;2023-02-12T05:40:36;100748.25;;;2.78;100.00
77165;BME280;66140;50.280;18.660;2023-02-12T05:46:02;100769.25;;;2.69;100.00
77165;BME280;66140;50.280;18.660;2023-02-12T05:48:36;100762.25;;;2.71;100.00
77165;BME280;66140;50.280;18.660;2023-02-12T05:51:08;100741.38;;;2.57;100.00
77165;BME280;66140;50.280;18.660;2023-02-12T05:53:37;100760.56;;;2.68;100.00
77165;BME280;66140;50.280;18.660;2023-02-12T05:58:35;100763.22;;;2.59;100.00
77165;BME280;66140;50.280;18.660;2023-02-12T06:01:01;100770.19;;;2.57;100.00
77165;BME280;66140;50.280;18.660;2023-02-12T06:03:27;100768.44;;;2.56;100.00
77165;BME280;66140;50.280;18.660;2023-02-12T06:05:52;100765.81;;;2.59;100.00
77165;BME280;66140;50.280;18.660;2023-02-12T06:08:21;100780.66;;;2.63;100.00
77165;BME280;66140;50.280;18.660;2023-02-12T06:10:46;100798.09;;;2.73;100.00
77165;BME280;66140;50.280;18.660;2023-02-12T06:13:12;100790.25;;;2.66;100.00
77165;BME280;66140;50.280;18.660;2023-02-12T06:15:43;100800.72;;;2.67;100.00
77165;BME280;66140;50.280;18.660;2023-02-12T06:18:11;100800.72;;;2.64;100.00
77165;BME280;66140;50.280;18.660;2023-02-12T06:20:38;100798.13;;;2.64;100.00
77165;BME280;66140;50.280;18.660;2023-02-12T06:23:04;100802.44;;;2.71;100.00
77165;BME280;66140;50.280;18.660;2023-02-12T06:25:29;100823.41;;;2.71;100.00
77165;BME280;66140;50.280;18.660;2023-02-12T06:27:59;100812.94;;;2.74;100.00
77165;BME280;66140;50.280;18.660;2023-02-12T06:30:25;100835.63;;;2.81;100.00
77165;BME280;66140;50.280;18.660;2023-02-12T06:32:53;100830.38;;;2.81;100.00
77165;BME280;66140;50.280;18.660;2023-02-12T06:35:19;100850.44;;;2.82;100.00
77165;BME280;66140;50.280;18.660;2023-02-12T06:37:47;100855.66;;;2.89;100.00
77165;BME280;66140;50.280;18.660;2023-02-12T06:40:13;100846.09;;;2.78;100.00
77165;BME280;66140;50.280;18.660;2023-02-12T06:42:51;100847.84;;;2.76;100.00
77165;BME280;66140;50.280;18.660;2023-02-12T06:45:20;100854.84;;;2.76;100.00
77165;BME280;66140;50.280;18.660;2023-02-12T06:47:48;100848.72;;;2.75;100.00
77165;BME280;66140;50.280;18.660;2023-02-12T06:50:22;100871.38;;;2.90;100.00
77165;BME280;66140;50.280;18.660;2023-02-12T06:53:00;100852.19;;;2.85;100.00
77165;BME280;66140;50.280;18.660;2023-02-12T06:55:35;100853.94;;;2.85;99.93
77165;BME280;66140;50.280;18.660;2023-02-12T06:58:06;100858.28;;;2.90;99.32
77165;BME280;66140;50.280;18.660;2023-02-12T07:00:43;100873.94;;;3.02;98.32
77165;BME280;66140;50.280;18.660;2023-02-12T07:03:27;100862.63;;;2.99;96.79
77165;BME280;66140;50.280;18.660;2023-02-12T07:06:18;100860.91;;;2.92;96.15
77165;BME280;66140;50.280;18.660;2023-02-12T07:09:10;100851.28;;;2.92;96.08
77165;BME280;66140;50.280;18.660;2023-02-12T07:11:39;100854.78;;;2.91;96.00
77165;BME280;66140;50.280;18.660;2023-02-12T07:14:31;100873.09;;;2.97;95.35
77165;BME280;66140;50.280;18.660;2023-02-12T07:17:05;100871.34;;;2.98;95.44
77165;BME280;66140;50.280;18.660;2023-02-12T07:19:51;100877.47;;;2.98;94.46
77165;BME280;66140;50.280;18.660;2023-02-12T07:22:42;100868.78;;;2.86;94.88
77165;BME280;66140;50.280;18.660;2023-02-12T07:25:36;100883.63;;;2.94;94.87
77165;BME280;66140;50.280;18.660;2023-02-12T07:28:07;100889.72;;;2.92;95.22
77165;BME280;66140;50.280;18.660;2023-02-12T07:30:51;100885.41;;;2.88;94.13
77165;BME280;66140;50.280;18.660;2023-02-12T07:33:43;100895.88;;;2.88;94.66
77165;BME280;66140;50.280;18.660;2023-02-12T07:36:16;100901.94;;;2.96;94.52
77165;BME280;66140;50.280;18.660;2023-02-12T07:38:50;100901.13;;;2.88;94.06
77165;BME280;66140;50.280;18.660;2023-02-12T07:41:43;100897.66;;;2.76;94.06
77165;BME280;66140;50.280;18.660;2023-02-12T07:44:30;100916.84;;;2.85;92.91
77165;BME280;66140;50.280;18.660;2023-02-12T07:47:08;100915.97;;;2.82;92.57
77165;BME280;66140;50.280;18.660;2023-02-12T07:49:38;100905.53;;;2.63;92.01
77165;BME280;66140;50.280;18.660;2023-02-12T07:52:04;100928.25;;;2.64;91.67
77165;BME280;66140;50.280;18.660;2023-02-12T07:54:30;100903.88;;;2.42;91.26
77165;BME280;66140;50.280;18.660;2023-02-12T07:56:58;100915.22;;;2.38;90.39
77165;BME280;66140;50.280;18.660;2023-02-12T07:59:24;100933.56;;;2.36;90.63
77165;BME280;66140;50.280;18.660;2023-02-12T08:01:52;100923.09;;;2.29;91.19
77165;BME280;66140;50.280;18.660;2023-02-12T08:04:19;100922.22;;;2.21;92.03
77165;BME280;66140;50.280;18.660;2023-02-12T08:06:54;100930.94;;;2.20;91.52
77165;BME280;66140;50.280;18.660;2023-02-12T08:09:38;100931.84;;;2.11;92.29
77165;BME280;66140;50.280;18.660;2023-02-12T08:12:24;100946.66;;;2.26;91.73
77165;BME280;66140;50.280;18.660;2023-02-12T08:14:57;100946.66;;;2.29;91.26
77165;BME280;66140;50.280;18.660;2023-02-12T08:17:25;100950.16;;;2.25;91.16
77165;BME280;66140;50.280;18.660;2023-02-12T08:20:07;100971.97;;;2.40;90.02
77165;BME280;66140;50.280;18.660;2023-02-12T08:22:40;100951.88;;;2.38;88.60
77165;BME280;66140;50.280;18.660;2023-02-12T08:25:05;100960.63;;;2.40;88.95
77165;BME280;66140;50.280;18.660;2023-02-12T08:27:31;100962.38;;;2.47;90.66
77165;BME280;66140;50.280;18.660;2023-02-12T08:32:54;100956.22;;;2.60;89.95
77165;BME280;66140;50.280;18.660;2023-02-12T08:35:22;100965.84;;;2.61;88.57
77165;BME280;66140;50.280;18.660;2023-02-12T08:37:48;100989.41;;;2.75;89.49
77165;BME280;66140;50.280;18.660;2023-02-12T08:40:27;100983.25;;;2.83;86.85
77165;BME280;66140;50.280;18.660;2023-02-12T08:43:30;100969.28;;;2.78;86.93
77165;BME280;66140;50.280;18.660;2023-02-12T08:46:25;100969.28;;;2.88;86.79
77165;BME280;66140;50.280;18.660;2023-02-12T08:48:53;100970.13;;;2.90;86.89
77165;BME280;66140;50.280;18.660;2023-02-12T08:51:22;100972.75;;;2.90;86.06
77165;BME280;66140;50.280;18.660;2023-02-12T08:53:51;100971.91;;;2.81;84.84
77165;BME280;66140;50.280;18.660;2023-02-12T08:56:28;100979.75;;;2.85;85.68
77165;BME280;66140;50.280;18.660;2023-02-12T08:58:58;100987.66;;;2.81;85.66
77165;BME280;66140;50.280;18.660;2023-02-12T09:01:31;101000.72;;;2.89;86.63
77165;BME280;66140;50.280;18.660;2023-02-12T09:03:57;100995.50;;;2.88;83.93
77165;BME280;66140;50.280;18.660;2023-02-12T09:06:24;101004.19;;;2.96;84.72
77165;BME280;66140;50.280;18.660;2023-02-12T09:08:51;100989.38;;;2.84;84.49
77165;BME280;66140;50.280;18.660;2023-02-12T09:11:23;100983.25;;;2.77;83.64
77165;BME280;66140;50.280;18.660;2023-02-12T09:13:51;100996.38;;;2.80;84.42
77165;BME280;66140;50.280;18.660;2023-02-12T09:16:17;100994.59;;;2.89;83.07
77165;BME280;66140;50.280;18.660;2023-02-12T09:18:43;101019.06;;;2.92;83.42
77165;BME280;66140;50.280;18.660;2023-02-12T09:21:28;101005.13;;;2.75;83.78
77165;BME280;66140;50.280;18.660;2023-02-12T09:24:03;101013.84;;;2.75;83.79
77165;BME280;66140;50.280;18.660;2023-02-12T09:26:36;101016.47;;;2.75;83.78
77165;BME280;66140;50.280;18.660;2023-02-12T09:29:09;101022.59;;;2.74;83.61
77165;BME280;66140;50.280;18.660;2023-02-12T09:31:35;101009.50;;;2.68;83.88
77165;BME280;66140;50.280;18.660;2023-02-12T09:34:05;101023.47;;;2.79;84.66
77165;BME280;66140;50.280;18.660;2023-02-12T09:36:31;101014.69;;;2.90;83.38
77165;BME280;66140;50.280;18.660;2023-02-12T09:38:57;101025.16;;;2.96;85.40
77165;BME280;66140;50.280;18.660;2023-02-12T09:41:47;101040.88;;;3.20;83.28
77165;BME280;66140;50.280;18.660;2023-02-12T09:47:15;101046.09;;;3.17;82.69
77165;BME280;66140;50.280;18.660;2023-02-12T09:49:55;101049.56;;;3.20;81.41
77165;BME280;66140;50.280;18.660;2023-02-12T09:52:32;101044.41;;;3.07;81.45
77165;BME280;66140;50.280;18.660;2023-02-12T09:55:12;101054.88;;;3.13;81.99
77165;BME280;66140;50.280;18.660;2023-02-12T09:57:39;101042.63;;;3.10;81.55
77165;BME280;66140;50.280;18.660;2023-02-12T10:02:55;101036.53;;;3.05;83.03
77165;BME280;66140;50.280;18.660;2023-02-12T10:05:33;101044.38;;;3.13;84.25
77165;BME280;66140;50.280;18.660;2023-02-12T10:27:22;101083.69;;;3.33;82.03
77165;BME280;66140;50.280;18.660;2023-02-12T10:29:51;101065.31;;;3.28;82.09
77165;BME280;66140;50.280;18.660;2023-02-12T10:32:29;101069.66;;;3.28;81.89
77165;BME280;66140;50.280;18.660;2023-02-12T10:34:56;101063.56;;;3.21;82.55
77165;BME280;66140;50.280;18.660;2023-02-12T10:37:36;101080.16;;;3.29;82.68
77165;BME280;66140;50.280;18.660;2023-02-12T10:40:30;101078.47;;;3.19;84.74
77165;BME280;66140;50.280;18.660;2023-02-12T10:42:59;101085.44;;;3.14;84.31
77165;BME280;66140;50.280;18.660;2023-02-12T10:45:36;101079.31;;;3.15;84.43
77165;BME280;66140;50.280;18.660;2023-02-12T10:48:16;101077.59;;;3.20;84.81
77165;BME280;66140;50.280;18.660;2023-02-12T10:53:41;101078.41;;;3.30;83.51
77165;BME280;66140;50.280;18.660;2023-02-12T10:58:35;101079.22;;;3.53;83.14
77165;BME280;66140;50.280;18.660;2023-02-12T11:01:01;101081.84;;;3.54;80.91
77165;BME280;66140;50.280;18.660;2023-02-12T11:03:32;101075.69;;;3.58;82.81
77165;BME280;66140;50.280;18.660;2023-02-12T11:06:20;101072.22;;;3.53;83.74
77165;BME280;66140;50.280;18.660;2023-02-12T11:08:46;101071.38;;;3.51;82.27
77165;BME280;66140;50.280;18.660;2023-02-12T11:11:15;101083.56;;;3.61;82.42
77165;BME280;66140;50.280;18.660;2023-02-12T11:13:52;101075.69;;;3.65;80.96
77165;BME280;66140;50.280;18.660;2023-02-12T11:16:30;101069.50;;;3.75;81.00
77165;BME280;66140;50.280;18.660;2023-02-12T11:19:09;101065.13;;;3.77;80.81
77165;BME280;66140;50.280;18.660;2023-02-12T11:21:44;101056.41;;;3.69;82.83
77165;BME280;66140;50.280;18.660;2023-02-12T11:24:38;101051.19;;;3.62;81.64
77165;BME280;66140;50.280;18.660;2023-02-12T11:27:23;101074.72;;;3.79;81.01
77165;BME280;66140;50.280;18.660;2023-02-12T11:32:37;101065.06;;;3.84;80.66
77165;BME280;66140;50.280;18.660;2023-02-12T11:35:13;101060.72;;;3.82;82.57
77165;BME280;66140;50.280;18.660;2023-02-12T11:37:41;101056.41;;;3.69;83.60
77165;BME280;66140;50.280;18.660;2023-02-12T11:40:15;101050.28;;;3.68;83.83
77165;BME280;66140;50.280;18.660;2023-02-12T11:42:47;101050.31;;;3.60;85.27
77165;BME280;66140;50.280;18.660;2023-02-12T11:45:19;101074.78;;;3.70;83.05
77165;BME280;66140;50.280;18.660;2023-02-12T11:47:46;101069.53;;;3.70;83.09
77165;BME280;66140;50.280;18.660;2023-02-12T11:50:27;101063.38;;;3.76;84.74
77165;BME280;66140;50.280;18.660;2023-02-12T11:52:57;101061.56;;;3.87;84.52
77165;BME280;66140;50.280;18.660;2023-02-12T11:55:29;101060.63;;;4.03;84.14
77165;BME280;66140;50.280;18.660;2023-02-12T12:00:40;101049.09;;;4.22;83.16
77165;BME280;66140;50.280;18.660;2023-02-12T12:05:53;101055.22;;;4.23;81.02
77165;BME280;66140;50.280;18.660;2023-02-12T12:08:32;101066.63;;;4.20;81.84
77165;BME280;66140;50.280;18.660;2023-02-12T12:13:49;101073.63;;;4.20;82.56
77165;BME280;66140;50.280;18.660;2023-02-12T12:16:23;101072.75;;;4.22;83.40
77165;BME280;66140;50.280;18.660;2023-02-12T12:19:21;101066.63;;;4.20;83.08
77165;BME280;66140;50.280;18.660;2023-02-12T12:22:18;101061.38;;;4.20;82.86
77165;BME280;66140;50.280;18.660;2023-02-12T12:47:33;101072.69;;;4.33;83.06
77165;BME280;66140;50.280;18.660;2023-02-12T12:56:12;101064.75;;;4.37;81.40
77165;BME280;66140;50.280;18.660;2023-02-12T13:09:57;101062.94;;;4.46;79.54
77165;BME280;66140;50.280;18.660;2023-02-12T13:12:47;101064.66;;;4.50;79.99
77165;BME280;66140;50.280;18.660;2023-02-12T13:18:14;101061.25;;;4.35;80.33
77165;BME280;66140;50.280;18.660;2023-02-12T13:21:04;101053.34;;;4.38;81.13
77165;BME280;66140;50.280;18.660;2023-02-12T13:23:39;101061.09;;;4.57;79.39
77165;BME280;66140;50.280;18.660;2023-02-12T13:32:15;101062.84;;;4.56;80.09
77165;BME280;66140;50.280;18.660;2023-02-12T13:34:48;101046.25;;;4.48;79.97
77165;BME280;66140;50.280;18.660;2023-02-12T13:37:29;101038.41;;;4.47;80.01
77165;BME280;66140;50.280;18.660;2023-02-12T13:40:03;101054.13;;;4.53;80.07
77165;BME280;66140;50.280;18.660;2023-02-12T13:42:45;101052.44;;;4.46;80.47
77165;BME280;66140;50.280;18.660;2023-02-12T13:50:45;101062.22;;;4.24;82.20
77165;BME280;66140;50.280;18.660;2023-02-12T13:56:05;101069.22;;;4.23;80.79
77165;BME280;66140;50.280;18.660;2023-02-12T14:01:11;101061.44;;;4.08;81.46
77165;BME280;66140;50.280;18.660;2023-02-12T14:03:39;101064.09;;;4.08;81.31
77165;BME280;66140;50.280;18.660;2023-02-12T14:06:14;101078.97;;;4.06;82.24
77165;BME280;66140;50.280;18.660;2023-02-12T14:08:50;101081.63;;;4.01;82.19
77165;BME280;66140;50.280;18.660;2023-02-12T14:11:19;101069.34;;;4.05;81.01
77165;BME280;66140;50.280;18.660;2023-02-12T14:14:01;101065.00;;;4.01;82.00
77165;BME280;66140;50.280;18.660;2023-02-12T14:22:00;101066.72;;;4.03;82.22
77165;BME280;66140;50.280;18.660;2023-02-12T14:27:01;101084.25;;;4.03;82.84
77165;BME280;66140;50.280;18.660;2023-02-12T14:29:32;101064.13;;;3.99;82.22
77165;BME280;66140;50.280;18.660;2023-02-12T14:31:57;101084.19;;;4.12;81.06
77165;BME280;66140;50.280;18.660;2023-02-12T14:34:43;101058.84;;;4.05;81.26
77165;BME280;66140;50.280;18.660;2023-02-12T14:37:14;101077.22;;;4.05;81.71
77165;BME280;66140;50.280;18.660;2023-02-12T14:39:39;101064.09;;;4.05;81.27
77165;BME280;66140;50.280;18.660;2023-02-12T14:50:17;101065.97;;;3.79;83.28
77165;BME280;66140;50.280;18.660;2023-02-12T14:52:50;101076.53;;;3.65;83.62
77165;BME280;66140;50.280;18.660;2023-02-12T14:55:21;101066.94;;;3.59;83.30
77165;BME280;66140;50.280;18.660;2023-02-12T14:57:48;101076.56;;;3.59;83.82
77165;BME280;66140;50.280;18.660;2023-02-12T15:06:01;101088.91;;;3.36;85.66
77165;BME280;66140;50.280;18.660;2023-02-12T15:08:35;101090.66;;;3.28;86.36
77165;BME280;66140;50.280;18.660;2023-02-12T15:11:16;101083.72;;;3.13;86.68
77165;BME280;66140;50.280;18.660;2023-02-12T15:13:54;101096.84;;;3.04;87.17
77165;BME280;66140;50.280;18.660;2023-02-12T15:21:59;101088.13;;;2.79;88.02
77165;BME280;66140;50.280;18.660;2023-02-12T15:24:26;101094.25;;;2.73;88.02
77165;BME280;66140;50.280;18.660;2023-02-12T15:26:54;101078.50;;;2.60;88.72
77165;BME280;66140;50.280;18.660;2023-02-12T15:29:24;101070.66;;;2.48;88.91
77165;BME280;66140;50.280;18.660;2023-02-12T15:31:53;101079.38;;;2.39;89.38
77165;BME280;66140;50.280;18.660;2023-02-12T15:34:20;101102.94;;;2.40;89.62
77165;BME280;66140;50.280;18.660;2023-02-12T15:36:46;101086.31;;;2.25;90.05
77165;BME280;66140;50.280;18.660;2023-02-12T15:39:20;101081.09;;;2.16;90.25
77165;BME280;66140;50.280;18.660;2023-02-12T15:41:47;101093.31;;;2.17;90.90
77165;BME280;66140;50.280;18.660;2023-02-12T15:44:18;101096.78;;;2.13;90.74
77165;BME280;66140;50.280;18.660;2023-02-12T15:47:13;101097.66;;;2.04;91.34
77165;BME280;66140;50.280;18.660;2023-02-12T15:49:41;101096.75;;;1.97;91.64
77165;BME280;66140;50.280;18.660;2023-02-12T15:52:18;101094.09;;;1.93;92.13
77165;BME280;66140;50.280;18.660;2023-02-12T15:54:46;101095.84;;;1.88;92.03
77165;BME280;66140;50.280;18.660;2023-02-12T15:57:19;101094.94;;;1.78;92.26
77165;BME280;66140;50.280;18.660;2023-02-12T15:59:55;101094.94;;;1.78;92.25
77165;BME280;66140;50.280;18.660;2023-02-12T16:02:27;101101.88;;;1.70;92.61
77165;BME280;66140;50.280;18.660;2023-02-12T16:04:57;101102.72;;;1.63;92.71
77165;BME280;66140;50.280;18.660;2023-02-12T16:07:24;101085.22;;;1.47;92.73
77165;BME280;66140;50.280;18.660;2023-02-12T16:09:51;101091.25;;;1.37;92.79
77165;BME280;66140;50.280;18.660;2023-02-12T16:12:20;101109.56;;;1.37;93.36
77165;BME280;66140;50.280;18.660;2023-02-12T16:14:52;101085.97;;;1.25;93.94
77165;BME280;66140;50.280;18.660;2023-02-12T16:20:27;101112.91;;;1.13;94.39
77165;BME280;66140;50.280;18.660;2023-02-12T16:22:54;101113.72;;;1.04;94.80
77165;BME280;66140;50.280;18.660;2023-02-12T16:27:57;101095.25;;;0.80;95.07
77165;BME280;66140;50.280;18.660;2023-02-12T16:30:32;101097.81;;;0.74;95.19
77165;BME280;66140;50.280;18.660;2023-02-12T16:32:58;101093.38;;;0.65;95.27
77165;BME280;66140;50.280;18.660;2023-02-12T16:35:29;101108.19;;;0.65;95.33
77165;BME280;66140;50.280;18.660;2023-02-12T16:43:38;101126.31;;;0.44;95.79
77165;BME280;66140;50.280;18.660;2023-02-12T16:46:05;101123.63;;;0.37;96.02
77165;BME280;66140;50.280;18.660;2023-02-12T16:48:38;101135.75;;;0.32;96.25
77165;BME280;66140;50.280;18.660;2023-02-12T16:51:04;101128.72;;;0.25;96.27
77165;BME280;66140;50.280;18.660;2023-02-12T16:55:59;101130.34;;;0.13;96.53
77165;BME280;66140;50.280;18.660;2023-02-12T16:58:25;101124.97;;;0.02;96.69
77165;BME280;66140;50.280;18.660;2023-02-12T17:00:52;101145.03;;;0.08;96.87
77165;BME280;66140;50.280;18.660;2023-02-12T17:03:18;101136.22;;;-0.07;96.67
77165;BME280;66140;50.280;18.660;2023-02-12T17:05:44;101136.22;;;-0.07;96.98
77165;BME280;66140;50.280;18.660;2023-02-12T17:08:15;101134.38;;;-0.14;97.11
77165;BME280;66140;50.280;18.660;2023-02-12T17:10:42;101150.06;;;-0.11;97.43
77165;BME280;66140;50.280;18.660;2023-02-12T17:13:09;101143.00;;;-0.18;97.74
77165;BME280;66140;50.280;18.660;2023-02-12T17:15:52;101147.34;;;-0.18;97.55
77165;BME280;66140;50.280;18.660;2023-02-12T17:18:23;101144.66;;;-0.24;97.68
77165;BME280;66140;50.280;18.660;2023-02-12T17:20:55;101141.19;;;-0.25;97.46
77165;BME280;66140;50.280;18.660;2023-02-12T17:23:22;101142.88;;;-0.28;97.53
77165;BME280;66140;50.280;18.660;2023-02-12T17:25:48;101146.28;;;-0.34;97.99
77165;BME280;66140;50.280;18.660;2023-02-12T17:28:13;101155.00;;;-0.33;98.45
77165;BME280;66140;50.280;18.660;2023-02-12T17:30:41;101141.00;;;-0.40;98.19
77165;BME280;66140;50.280;18.660;2023-02-12T17:33:07;101133.91;;;-0.50;97.76
77165;BME280;66140;50.280;18.660;2023-02-12T17:35:32;101137.34;;;-0.53;98.38
77165;BME280;66140;50.280;18.660;2023-02-12T17:37:58;101139.91;;;-0.56;98.28
77165;BME280;66140;50.280;18.660;2023-02-12T17:40:23;101144.31;;;-0.53;98.67
77165;BME280;66140;50.280;18.660;2023-02-12T17:42:49;101132.06;;;-0.59;98.64
77165;BME280;66140;50.280;18.660;2023-02-12T17:45:15;101136.38;;;-0.61;98.55
77165;BME280;66140;50.280;18.660;2023-02-12T17:47:41;101120.66;;;-0.67;98.84
77165;BME280;66140;50.280;18.660;2023-02-12T17:50:09;101122.34;;;-0.69;98.50
77165;BME280;66140;50.280;18.660;2023-02-12T17:52:34;101128.34;;;-0.74;98.84
77165;BME280;66140;50.280;18.660;2023-02-12T17:55:00;101131.00;;;-0.70;98.97
77165;BME280;66140;50.280;18.660;2023-02-12T17:57:26;101141.41;;;-0.73;99.49
77165;BME280;66140;50.280;18.660;2023-02-12T17:59:51;101136.13;;;-0.76;99.25
77165;BME280;66140;50.280;18.660;2023-02-12T18:02:16;101132.56;;;-0.83;99.07
77165;BME280;66140;50.280;18.660;2023-02-12T18:04:42;101129.97;;;-0.84;99.11
77165;BME280;66140;50.280;18.660;2023-02-12T18:07:08;101123.88;;;-0.83;99.43
77165;BME280;66140;50.280;18.660;2023-02-12T18:09:35;101124.69;;;-0.87;99.48
77165;BME280;66140;50.280;18.660;2023-02-12T18:12:01;101128.16;;;-0.90;99.47
77165;BME280;66140;50.280;18.660;2023-02-12T18:14:29;101136.78;;;-0.92;99.35
77165;BME280;66140;50.280;18.660;2023-02-12T18:16:54;101114.88;;;-1.05;99.33
77165;BME280;66140;50.280;18.660;2023-02-12T18:19:24;101133.25;;;-0.97;100.00
77165;BME280;66140;50.280;18.660;2023-02-12T18:22:09;101120.03;;;-1.09;99.51
77165;BME280;66140;50.280;18.660;2023-02-12T18:24:38;101128.72;;;-1.09;99.91
77165;BME280;66140;50.280;18.660;2023-02-12T18:27:14;101126.84;;;-1.17;99.89
77165;BME280;66140;50.280;18.660;2023-02-12T18:29:39;101133.91;;;-1.10;99.71
77165;BME280;66140;50.280;18.660;2023-02-12T18:32:28;101127.75;;;-1.14;99.77
77165;BME280;66140;50.280;18.660;2023-02-12T18:35:16;101137.25;;;-1.17;99.68
77165;BME280;66140;50.280;18.660;2023-02-12T18:37:46;101140.63;;;-1.22;99.83
77165;BME280;66140;50.280;18.660;2023-02-12T18:40:15;101107.38;;;-1.39;99.43
77165;BME280;66140;50.280;18.660;2023-02-12T18:42:43;101114.34;;;-1.38;100.00
77165;BME280;66140;50.280;18.660;2023-02-12T18:45:11;101122.25;;;-1.32;99.57
77165;BME280;66140;50.280;18.660;2023-02-12T18:47:37;101104.75;;;-1.42;100.00
77165;BME280;66140;50.280;18.660;2023-02-12T18:50:07;101105.72;;;-1.36;100.00
77165;BME280;66140;50.280;18.660;2023-02-12T18:52:33;101109.09;;;-1.40;100.00
77165;BME280;66140;50.280;18.660;2023-02-12T18:54:58;101103.97;;;-1.37;100.00
77165;BME280;66140;50.280;18.660;2023-02-12T18:57:24;101107.63;;;-1.24;100.00
77165;BME280;66140;50.280;18.660;2023-02-12T18:59:50;101111.16;;;-1.21;100.00
77165;BME280;66140;50.280;18.660;2023-02-12T19:02:16;101113.69;;;-1.25;100.00
77165;BME280;66140;50.280;18.660;2023-02-12T19:04:41;101111.06;;;-1.27;100.00
77165;BME280;66140;50.280;18.660;2023-02-12T19:07:07;101099.72;;;-1.30;100.00
77165;BME280;66140;50.280;18.660;2023-02-12T19:09:32;101102.25;;;-1.35;100.00
77165;BME280;66140;50.280;18.660;2023-02-12T19:11:58;101103.13;;;-1.36;100.00
77165;BME280;66140;50.280;18.660;2023-02-12T19:14:24;101117.97;;;-1.29;100.00
77165;BME280;66140;50.280;18.660;2023-02-12T19:16:51;101105.63;;;-1.42;100.00
77165;BME280;66140;50.280;18.660;2023-02-12T19:19:18;101113.44;;;-1.42;100.00
77165;BME280;66140;50.280;18.660;2023-02-12T19:21:45;101102.03;;;-1.47;100.00
77165;BME280;66140;50.280;18.660;2023-02-12T19:24:12;101127.34;;;-1.38;100.00
77165;BME280;66140;50.280;18.660;2023-02-12T19:26:38;101126.38;;;-1.45;100.00
77165;BME280;66140;50.280;18.660;2023-02-12T19:29:07;101119.31;;;-1.52;100.00
77165;BME280;66140;50.280;18.660;2023-02-12T19:31:35;101138.53;;;-1.44;100.00
77165;BME280;66140;50.280;18.660;2023-02-12T19:34:05;101126.25;;;-1.54;100.00
77165;BME280;66140;50.280;18.660;2023-02-12T19:36:34;101121.06;;;-1.51;100.00
77165;BME280;66140;50.280;18.660;2023-02-12T19:39:20;101133.28;;;-1.47;100.00
77165;BME280;66140;50.280;18.660;2023-02-12T19:41:46;101130.66;;;-1.47;100.00
77165;BME280;66140;50.280;18.660;2023-02-12T19:44:17;101117.50;;;-1.56;100.00
77165;BME280;66140;50.280;18.660;2023-02-12T19:46:44;101116.66;;;-1.55;100.00
77165;BME280;66140;50.280;18.660;2023-02-12T19:49:18;101128.88;;;-1.51;100.00
77165;BME280;66140;50.280;18.660;2023-02-12T19:51:44;101128.06;;;-1.47;100.00
77165;BME280;66140;50.280;18.660;2023-02-12T19:54:11;101133.28;;;-1.47;100.00
77165;BME280;66140;50.280;18.660;2023-02-12T19:56:37;101137.66;;;-1.44;100.00
77165;BME280;66140;50.280;18.660;2023-02-12T19:59:03;101132.53;;;-1.41;100.00
77165;BME280;66140;50.280;18.660;2023-02-12T20:01:57;101136.84;;;-1.42;100.00
77165;BME280;66140;50.280;18.660;2023-02-12T20:04:23;101144.63;;;-1.43;100.00
77165;BME280;66140;50.280;18.660;2023-02-12T20:06:49;101130.78;;;-1.42;100.00
77165;BME280;66140;50.280;18.660;2023-02-12T20:09:15;101121.97;;;-1.49;100.00
77165;BME280;66140;50.280;18.660;2023-02-12T20:14:37;101131.63;;;-1.43;100.00
77165;BME280;66140;50.280;18.660;2023-02-12T20:17:03;101125.50;;;-1.45;100.00
77165;BME280;66140;50.280;18.660;2023-02-12T20:19:31;101119.47;;;-1.43;100.00
77165;BME280;66140;50.280;18.660;2023-02-12T20:21:58;101122.13;;;-1.41;100.00
77165;BME280;66140;50.280;18.660;2023-02-12T20:24:30;101130.88;;;-1.36;100.00
77165;BME280;66140;50.280;18.660;2023-02-12T20:26:58;101136.03;;;-1.38;100.00
77165;BME280;66140;50.280;18.660;2023-02-12T20:29:23;101131.75;;;-1.36;100.00
